Terminal Aerodrome Forecast
Issued by NWS Portland, OR

Home | Current Version | Previous Version | Text Only | Print | Product List | Glossary On
Versions: 1 2 3 4 5 6 7 8 9 10 11 12 13 14 15 16 17 18 19 20 21 22 23 24 25 26 27 28 29 30 31 32 33 34 35 36
000
FTUS46 KPQR 262331
TAFSLE
TAF
KSLE 262331Z 2700/2724 VRB03KT P6SM SCT025 BKN050
     FM270400 16003KT P6SM SCT018 BKN035 OVC045
     FM271000 16003KT 4SM BR BKN008 OVC018
     FM272000 18008KT P6SM SCT018 OVC035=

USA.gov is the U.S. government's official web portal to all federal, state and local government web resources and services.